createdAt,value
2023-05-22T00:00:11.690Z,14
2023-05-22T00:03:12.444Z,13.9
2023-05-22T00:06:11.751Z,13.8
2023-05-22T00:09:11.695Z,13.8
2023-05-22T00:12:11.694Z,13.6
2023-05-22T00:15:11.773Z,13.6
2023-05-22T00:18:11.950Z,13.5
2023-05-22T00:21:11.712Z,13.5
2023-05-22T00:24:11.759Z,13.5
2023-05-22T00:27:11.739Z,13.5
2023-05-22T00:30:11.742Z,13.5
2023-05-22T00:33:12.180Z,13.5
2023-05-22T00:36:11.726Z,13.4
2023-05-22T00:39:11.588Z,13.4
2023-05-22T00:42:11.670Z,13.4
2023-05-22T00:45:11.706Z,13.4
2023-05-22T00:48:11.913Z,13.4
2023-05-22T00:51:11.789Z,13.4
2023-05-22T00:54:11.772Z,13.4
2023-05-22T00:57:11.679Z,13.4
2023-05-22T01:00:11.737Z,13.4
2023-05-22T01:03:12.370Z,13.4
2023-05-22T01:06:11.697Z,13.4
2023-05-22T01:09:11.692Z,13.4
2023-05-22T01:12:11.674Z,13.3
2023-05-22T01:15:11.705Z,13.3
2023-05-22T01:18:12.040Z,13.3
2023-05-22T01:21:11.640Z,13.1
2023-05-22T01:24:11.683Z,13
2023-05-22T01:27:11.720Z,13
2023-05-22T01:30:11.654Z,13
2023-05-22T01:33:12.501Z,12.9
2023-05-22T01:36:11.644Z,12.9
2023-05-22T01:39:11.719Z,12.9
2023-05-22T01:42:11.708Z,12.9
2023-05-22T01:45:11.794Z,12.8
2023-05-22T01:48:12.096Z,12.8
2023-05-22T01:51:11.611Z,12.8
2023-05-22T01:54:11.742Z,12.8
2023-05-22T01:57:11.677Z,12.8
2023-05-22T02:00:11.712Z,12.8
2023-05-22T02:03:12.738Z,12.9
2023-05-22T02:06:11.700Z,12.8
2023-05-22T02:09:11.748Z,12.8
2023-05-22T02:12:11.706Z,12.8
2023-05-22T02:15:12.056Z,12.8
2023-05-22T02:18:12.328Z,12.8
2023-05-22T02:21:11.655Z,12.8
2023-05-22T02:24:11.752Z,12.8
2023-05-22T02:27:11.707Z,12.8
2023-05-22T02:30:11.721Z,12.8
2023-05-22T02:33:12.140Z,12.8
2023-05-22T02:36:11.718Z,12.9
2023-05-22T02:39:11.655Z,12.9
2023-05-22T02:42:11.671Z,12.9
2023-05-22T02:45:11.840Z,12.9
2023-05-22T02:48:12.227Z,12.9
2023-05-22T02:51:11.678Z,12.9
2023-05-22T02:54:11.712Z,12.8
2023-05-22T02:57:11.709Z,12.8
2023-05-22T03:00:11.810Z,12.8
2023-05-22T03:03:12.471Z,12.8
2023-05-22T03:06:11.826Z,12.8
2023-05-22T03:09:11.630Z,12.6
2023-05-22T03:12:11.729Z,12.6
2023-05-22T03:15:11.804Z,12.8
2023-05-22T03:18:12.229Z,12.8
2023-05-22T03:21:11.731Z,12.9
2023-05-22T03:24:11.706Z,12.9
2023-05-22T03:27:11.876Z,12.9
2023-05-22T03:30:11.725Z,13
2023-05-22T03:33:12.488Z,13.1
2023-05-22T03:36:11.730Z,13.1
2023-05-22T03:39:11.887Z,13.3
2023-05-22T03:42:11.928Z,13.4
2023-05-22T03:45:11.795Z,13.4
2023-05-22T03:48:12.218Z,13.5
2023-05-22T03:51:11.767Z,13.6
2023-05-22T03:54:11.765Z,13.8
2023-05-22T03:57:11.810Z,14
2023-05-22T04:00:12.098Z,14.1
2023-05-22T04:03:12.738Z,14.4
2023-05-22T04:06:11.769Z,14.5
2023-05-22T04:09:11.781Z,14.7
2023-05-22T04:12:11.712Z,14.9
2023-05-22T04:15:11.762Z,15.1
2023-05-22T04:18:12.486Z,15.4
2023-05-22T04:21:11.968Z,15.5
2023-05-22T04:24:12.058Z,15.8
2023-05-22T04:27:11.739Z,15.9
2023-05-22T04:30:11.720Z,16.1
2023-05-22T04:33:12.665Z,16.3
2023-05-22T04:36:14.525Z,16.4
2023-05-22T04:39:11.881Z,16.6
2023-05-22T04:42:11.723Z,16.8
2023-05-22T04:45:12.055Z,16.9
2023-05-22T04:48:12.097Z,17.1
2023-05-22T04:51:11.714Z,17.2
2023-05-22T04:54:11.773Z,17.5
2023-05-22T04:57:11.797Z,17.9
2023-05-22T05:00:11.862Z,18.1
2023-05-22T05:03:12.932Z,18.5
2023-05-22T05:06:11.861Z,19
2023-05-22T05:09:11.708Z,19.4
2023-05-22T05:12:11.700Z,20
2023-05-22T05:15:11.877Z,20.8
2023-05-22T05:18:12.106Z,21.4
2023-05-22T05:21:11.735Z,23.1
2023-05-22T05:24:11.816Z,25.4
2023-05-22T05:27:11.809Z,27.1
2023-05-22T05:30:12.054Z,28.4
2023-05-22T05:33:12.318Z,29
2023-05-22T05:36:12.029Z,29.9
2023-05-22T05:39:11.716Z,29.3
2023-05-22T05:42:11.783Z,28.6
2023-05-22T05:45:11.948Z,28.6
2023-05-22T05:48:12.380Z,28.4
2023-05-22T05:51:12.324Z,28.5
2023-05-22T05:54:11.788Z,28.1
2023-05-22T05:57:12.407Z,27.9
2023-05-22T06:00:12.035Z,28.3
2023-05-22T06:03:12.791Z,28.1
2023-05-22T06:06:12.417Z,28.3
2023-05-22T06:09:11.853Z,28.5
2023-05-22T06:12:11.662Z,29.3
2023-05-22T06:15:11.911Z,29
2023-05-22T06:18:12.239Z,28.6
2023-05-22T06:21:11.794Z,28.6
2023-05-22T06:24:11.703Z,30.1
2023-05-22T06:27:11.901Z,30.4
2023-05-22T06:30:13.649Z,30.5
2023-05-22T06:33:12.652Z,29.8
2023-05-22T06:36:11.722Z,29.3
2023-05-22T06:39:12.262Z,29.3
2023-05-22T06:42:11.715Z,30.4
2023-05-22T06:45:11.772Z,30.6
2023-05-22T06:48:12.026Z,30
2023-05-22T06:51:11.827Z,29.8
2023-05-22T06:54:11.808Z,29.8
2023-05-22T06:57:11.760Z,30
2023-05-22T07:00:12.315Z,30.3
2023-05-22T07:03:12.163Z,30.5
2023-05-22T07:06:12.483Z,31.2
2023-05-22T07:09:11.723Z,31.9
2023-05-22T07:12:11.639Z,33.1
2023-05-22T07:15:11.676Z,32.9
2023-05-22T07:18:12.035Z,32.2
2023-05-22T07:21:11.804Z,31.5
2023-05-22T07:24:11.902Z,31.4
2023-05-22T07:27:11.735Z,31.4
2023-05-22T07:30:11.730Z,33.2
2023-05-22T07:33:12.239Z,35.6
2023-05-22T07:36:12.097Z,37.2
2023-05-22T07:39:12.237Z,39.1
2023-05-22T07:42:13.121Z,39.4
2023-05-22T07:45:11.814Z,38.4
2023-05-22T07:48:12.081Z,37
2023-05-22T07:51:11.750Z,35.6
2023-05-22T07:54:12.239Z,34.1
2023-05-22T07:57:11.707Z,33
2023-05-22T08:00:11.930Z,32.6
2023-05-22T08:03:12.752Z,33.4
2023-05-22T08:06:12.240Z,34.5
2023-05-22T08:09:11.820Z,35.1
2023-05-22T08:12:15.087Z,35.9
2023-05-22T08:15:13.186Z,36.1
2023-05-22T08:18:13.133Z,38
2023-05-22T08:21:11.727Z,40.6
2023-05-22T08:24:12.034Z,42.4
2023-05-22T08:27:11.991Z,43.5
2023-05-22T08:30:12.035Z,41.7
2023-05-22T08:33:12.490Z,39.6
2023-05-22T08:36:12.375Z,40.5
2023-05-22T08:39:12.777Z,41.6
2023-05-22T08:42:12.296Z,42.7
2023-05-22T08:45:13.015Z,45.4
2023-05-22T08:48:12.676Z,47.2
2023-05-22T08:51:16.061Z,47.7
2023-05-22T08:54:21.108Z,46.4
2023-05-22T09:00:12.795Z,44.2
2023-05-22T09:03:12.752Z,43.5
2023-05-22T09:06:12.141Z,43
2023-05-22T09:09:12.081Z,43.6
2023-05-22T09:12:12.088Z,43.5
2023-05-22T09:15:12.429Z,42.5
2023-05-22T09:18:12.715Z,41.2
2023-05-22T09:24:12.759Z,41.5
2023-05-22T09:27:12.295Z,42.6
2023-05-22T09:30:12.393Z,44.4
2023-05-22T09:33:12.590Z,43.7
2023-05-22T09:36:12.310Z,42.7
2023-05-22T09:39:12.195Z,42.2
2023-05-22T09:42:12.172Z,42.1
2023-05-22T09:45:12.224Z,41.5
2023-05-22T09:48:12.486Z,40.6
2023-05-22T09:51:12.257Z,40
2023-05-22T09:54:12.198Z,40.1
2023-05-22T09:57:12.312Z,40.8
2023-05-22T10:00:12.445Z,42.6
2023-05-22T10:03:12.497Z,45
2023-05-22T10:06:12.224Z,46.1
2023-05-22T10:09:12.958Z,44.9
2023-05-22T10:12:12.281Z,42.9
2023-05-22T10:15:12.165Z,42.5
2023-05-22T10:18:12.833Z,43.5
2023-05-22T10:21:12.150Z,43.6
2023-05-22T10:24:12.229Z,43.6
2023-05-22T10:27:12.229Z,44.9
2023-05-22T10:30:12.385Z,47.6
2023-05-22T10:33:12.965Z,47.7
2023-05-22T10:36:12.315Z,48
2023-05-22T10:39:12.680Z,49.2
2023-05-22T10:42:12.344Z,49.9
2023-05-22T10:45:12.266Z,48.7
2023-05-22T10:48:12.786Z,45.5
2023-05-22T10:51:12.162Z,43.3
2023-05-22T10:54:12.421Z,44.1
2023-05-22T10:57:12.194Z,45.4
2023-05-22T11:00:12.599Z,44.9
2023-05-22T11:03:29.806Z,44.1
2023-05-22T11:06:12.273Z,44.4
2023-05-22T11:09:12.207Z,44.9
2023-05-22T11:12:12.350Z,46.2
2023-05-22T11:15:12.314Z,47.7
2023-05-22T11:18:12.597Z,47.6
2023-05-22T11:21:12.269Z,47.1
2023-05-22T11:24:12.499Z,45.9
2023-05-22T11:27:12.196Z,44.2
2023-05-22T11:30:12.580Z,42.5
2023-05-22T11:33:12.600Z,40.9
2023-05-22T11:36:12.168Z,40.2
2023-05-22T11:39:12.163Z,39.9
2023-05-22T11:42:12.248Z,40.4
2023-05-22T11:45:12.400Z,40.6
2023-05-22T11:48:14.734Z,42
2023-05-22T11:51:12.154Z,42.9
2023-05-22T11:54:12.251Z,45.2
2023-05-22T11:57:12.300Z,47.5
2023-05-22T12:00:13.267Z,49
2023-05-22T12:03:13.050Z,49.4
2023-05-22T12:06:14.015Z,49.6
2023-05-22T12:09:12.190Z,49
2023-05-22T12:12:12.303Z,49.4
2023-05-22T12:15:12.406Z,49.6
2023-05-22T12:18:13.885Z,49
2023-05-22T12:21:12.261Z,47.6
2023-05-22T12:24:12.335Z,48
2023-05-22T12:27:12.077Z,49.2
2023-05-22T12:30:12.637Z,49.1
2023-05-22T12:33:12.614Z,48.4
2023-05-22T12:36:12.329Z,46.6
2023-05-22T12:39:12.222Z,46.4
2023-05-22T12:42:12.236Z,47.2
2023-05-22T12:45:12.181Z,48.5
2023-05-22T12:48:12.540Z,47.4
2023-05-22T12:51:12.262Z,45.1
2023-05-22T12:54:12.553Z,45.8
2023-05-22T12:57:12.229Z,46.5
2023-05-22T13:00:12.681Z,48
2023-05-22T13:03:12.549Z,46.1
2023-05-22T13:06:12.265Z,45.8
2023-05-22T13:09:12.434Z,44
2023-05-22T13:12:12.529Z,42.5
2023-05-22T13:15:12.202Z,41.4
2023-05-22T13:18:12.523Z,40.6
2023-05-22T13:21:12.091Z,40
2023-05-22T13:24:12.169Z,39.2
2023-05-22T13:27:12.237Z,38.6
2023-05-22T13:30:12.675Z,37.9
2023-05-22T13:33:12.646Z,37.4
2023-05-22T13:36:12.215Z,37.4
2023-05-22T13:39:12.156Z,37.6
2023-05-22T13:42:12.275Z,40.2
2023-05-22T13:45:12.297Z,44
2023-05-22T13:48:12.590Z,46.9
2023-05-22T13:51:12.073Z,48.6
2023-05-22T13:54:12.087Z,46.4
2023-05-22T13:57:12.178Z,43.7
2023-05-22T14:00:12.576Z,41.6
2023-05-22T14:03:13.162Z,40.4
2023-05-22T14:06:12.326Z,39.4
2023-05-22T14:09:12.203Z,38.6
2023-05-22T14:12:12.241Z,38
2023-05-22T14:15:12.229Z,37.9
2023-05-22T14:18:12.521Z,37.4
2023-05-22T14:21:15.623Z,38
2023-05-22T14:24:12.256Z,41
2023-05-22T14:27:12.164Z,44.7
2023-05-22T14:30:12.262Z,47.5
2023-05-22T14:33:12.820Z,49
2023-05-22T14:36:12.229Z,48.5
2023-05-22T14:39:12.331Z,47.7
2023-05-22T14:42:12.219Z,49.2
2023-05-22T14:45:12.384Z,47.7
2023-05-22T14:48:15.292Z,48.4
2023-05-22T14:51:12.139Z,49.1
2023-05-22T14:54:15.871Z,49.5
2023-05-22T14:57:12.189Z,49.6
2023-05-22T15:00:12.530Z,48.9
2023-05-22T15:03:13.307Z,47.2
2023-05-22T15:06:12.314Z,45.5
2023-05-22T15:09:12.096Z,43.9
2023-05-22T15:12:12.189Z,41.5
2023-05-22T15:15:12.443Z,38.7
2023-05-22T15:18:12.711Z,36.6
2023-05-22T15:21:12.267Z,35
2023-05-22T15:24:12.364Z,33.9
2023-05-22T15:27:12.243Z,33.1
2023-05-22T15:30:12.716Z,32.6
2023-05-22T15:33:12.837Z,32.4
2023-05-22T15:36:12.383Z,32.1
2023-05-22T15:39:12.309Z,32
2023-05-22T15:42:18.056Z,31.9
2023-05-22T15:45:12.313Z,31.6
2023-05-22T15:48:12.579Z,31.5
2023-05-22T15:51:12.249Z,31.4
2023-05-22T15:54:12.093Z,31.2
2023-05-22T15:57:12.089Z,31
2023-05-22T16:00:12.344Z,30.9
2023-05-22T16:03:13.219Z,30.6
2023-05-22T16:06:12.211Z,30.4
2023-05-22T16:09:12.303Z,30.1
2023-05-22T16:12:12.266Z,29.9
2023-05-22T16:15:16.020Z,29.5
2023-05-22T16:18:12.692Z,29.3
2023-05-22T16:21:12.229Z,29
2023-05-22T16:24:12.379Z,28.6
2023-05-22T16:27:12.264Z,28.4
2023-05-22T16:30:12.483Z,28.1
2023-05-22T16:33:12.702Z,27.8
2023-05-22T16:36:12.293Z,27.5
2023-05-22T16:39:12.211Z,27.4
2023-05-22T16:42:12.237Z,27.1
2023-05-22T16:45:12.442Z,26.9
2023-05-22T16:48:12.804Z,26.6
2023-05-22T16:51:12.390Z,26.5
2023-05-22T16:54:12.093Z,26.2
2023-05-22T16:57:12.617Z,26
2023-05-22T17:00:13.077Z,25.8
2023-05-22T17:03:14.660Z,25.6
2023-05-22T17:06:12.303Z,25.4
2023-05-22T17:09:12.445Z,25.1
2023-05-22T17:12:12.205Z,24.9
2023-05-22T17:15:12.245Z,24.6
2023-05-22T17:18:12.667Z,24.5
2023-05-22T17:21:12.398Z,24.3
2023-05-22T17:24:14.639Z,24.1
2023-05-22T17:27:12.779Z,24
2023-05-22T17:30:12.441Z,24
2023-05-22T17:33:12.617Z,24
2023-05-22T17:36:12.139Z,24
2023-05-22T17:39:12.257Z,24
2023-05-22T17:42:12.227Z,24
2023-05-22T17:45:12.168Z,24
2023-05-22T17:48:14.834Z,23.9
2023-05-22T17:51:12.346Z,23.9
2023-05-22T17:54:12.195Z,23.7
2023-05-22T17:57:12.146Z,23.7
2023-05-22T18:00:12.393Z,23.7
2023-05-22T18:03:12.920Z,23.7
2023-05-22T18:06:12.636Z,23.7
2023-05-22T18:09:12.321Z,23.6
2023-05-22T18:12:32.902Z,23.6
2023-05-22T18:15:12.458Z,23.5
2023-05-22T18:18:15.359Z,23.4
2023-05-22T18:21:12.204Z,23.1
2023-05-22T18:24:12.303Z,23.1
2023-05-22T18:27:12.344Z,23
2023-05-22T18:30:12.370Z,23
2023-05-22T18:33:12.536Z,23
2023-05-22T18:36:12.138Z,22.9
2023-05-22T18:39:12.205Z,22.8
2023-05-22T18:42:12.315Z,22.5
2023-05-22T18:45:12.268Z,22.2
2023-05-22T18:48:13.170Z,22
2023-05-22T18:51:12.508Z,21.9
2023-05-22T18:54:12.159Z,21.8
2023-05-22T18:57:12.220Z,21.5
2023-05-22T19:00:12.550Z,21.2
2023-05-22T19:03:12.636Z,21
2023-05-22T19:06:12.274Z,20.9
2023-05-22T19:09:12.213Z,20.6
2023-05-22T19:12:12.296Z,20.5
2023-05-22T19:15:12.550Z,20.1
2023-05-22T19:18:12.492Z,19.9
2023-05-22T19:21:12.105Z,19.5
2023-05-22T19:24:12.133Z,19.4
2023-05-22T19:27:12.352Z,19.1
2023-05-22T19:30:12.311Z,18.9
2023-05-22T19:33:15.720Z,18.6
2023-05-22T19:36:12.263Z,18.4
2023-05-22T19:39:12.128Z,18.3
2023-05-22T19:42:12.267Z,18.1
2023-05-22T19:45:12.069Z,18
2023-05-22T19:48:12.505Z,18
2023-05-22T19:51:12.134Z,17.9
2023-05-22T19:54:12.140Z,17.8
2023-05-22T19:57:12.127Z,17.8
2023-05-22T20:00:12.356Z,17.6
2023-05-22T20:03:13.233Z,17.6
2023-05-22T20:06:12.180Z,17.6
2023-05-22T20:09:12.040Z,17.5
2023-05-22T20:12:12.101Z,17.5
2023-05-22T20:15:12.178Z,17.5
2023-05-22T20:18:12.500Z,17.5
2023-05-22T20:21:12.116Z,17.4
2023-05-22T20:24:12.340Z,17.4
2023-05-22T20:27:12.237Z,17.4
2023-05-22T20:30:12.146Z,17.2
2023-05-22T20:33:13.496Z,17.2
2023-05-22T20:36:12.199Z,17.2
2023-05-22T20:39:12.239Z,17.2
2023-05-22T20:42:12.046Z,17.2
2023-05-22T20:45:14.920Z,17.4
2023-05-22T20:48:12.528Z,17.2
2023-05-22T20:51:12.121Z,17.2
2023-05-22T20:54:12.080Z,17.1
2023-05-22T20:57:12.175Z,17.1
2023-05-22T21:00:12.308Z,17
2023-05-22T21:03:12.584Z,17
2023-05-22T21:06:12.181Z,17
2023-05-22T21:09:12.431Z,17
2023-05-22T21:12:12.255Z,16.9
2023-05-22T21:15:12.189Z,17
2023-05-22T21:18:12.608Z,16.9
2023-05-22T21:21:12.274Z,17
2023-05-22T21:24:12.207Z,16.9
2023-05-22T21:27:12.032Z,17
2023-05-22T21:30:12.223Z,17
2023-05-22T21:33:12.506Z,17
2023-05-22T21:36:12.119Z,17
2023-05-22T21:39:12.090Z,17
2023-05-22T21:42:12.195Z,17
2023-05-22T21:45:12.158Z,17
2023-05-22T21:48:12.429Z,17
2023-05-22T21:51:12.087Z,16.9
2023-05-22T21:54:12.138Z,16.9
2023-05-22T21:57:12.351Z,16.9
2023-05-22T22:00:13.362Z,16.9
2023-05-22T22:03:13.043Z,16.9
2023-05-22T22:06:12.021Z,16.9
2023-05-22T22:09:12.187Z,16.9
2023-05-22T22:12:12.200Z,16.9
2023-05-22T22:15:12.121Z,16.9
2023-05-22T22:18:12.674Z,16.8
2023-05-22T22:21:12.069Z,16.8
2023-05-22T22:24:12.136Z,16.8
2023-05-22T22:27:12.106Z,16.8
2023-05-22T22:30:12.290Z,16.8
2023-05-22T22:33:12.570Z,16.8
2023-05-22T22:36:12.139Z,16.8
2023-05-22T22:39:12.118Z,16.9
2023-05-22T22:42:12.072Z,16.9
2023-05-22T22:45:12.120Z,16.8
2023-05-22T22:48:12.471Z,16.8
2023-05-22T22:51:12.144Z,16.8
2023-05-22T22:54:12.778Z,16.6
2023-05-22T22:57:12.179Z,16.6
2023-05-22T23:00:12.186Z,16.6
2023-05-22T23:03:12.442Z,16.6
2023-05-22T23:06:12.136Z,16.5
2023-05-22T23:09:12.189Z,16.5
2023-05-22T23:12:12.034Z,16.4
2023-05-22T23:15:12.042Z,16.3
2023-05-22T23:18:12.721Z,16.3
2023-05-22T23:21:12.148Z,16.3
2023-05-22T23:24:12.103Z,16.1
2023-05-22T23:27:12.125Z,16.1
2023-05-22T23:30:12.192Z,16
2023-05-22T23:33:12.349Z,16
2023-05-22T23:36:12.199Z,16
2023-05-22T23:39:12.190Z,15.9
2023-05-22T23:42:12.091Z,15.9
2023-05-22T23:45:12.151Z,15.9
2023-05-22T23:48:12.497Z,15.9
2023-05-22T23:51:12.055Z,15.9
2023-05-22T23:54:12.218Z,15.9
2023-05-22T23:57:12.569Z,15.8
